This is the latest recevied weather packets stored in our database for station/object KD9IXX-13. If no packets are shown the sender has not sent any weather packets the latest 1 day(s).
| Time | Temp. | Humidity | Pressure | Rain* | Wind** | Luminosity | Snow |
|---|---|---|---|---|---|---|---|
| 1778004602 | 12.22° C | 60% | 1011.1 hPa | 0 mm | 1.34 m/s, 258° | 244 W/m² | - |
| 1778004302 | 12.22° C | 58% | 1011.2 hPa | 0 mm | 0.89 m/s, 331° | 235 W/m² | - |
| 1778004003 | 12.78° C | 59% | 1011.2 hPa | 0 mm | 0 m/s | 255 W/m² | - |
| 1778003702 | 12.22° C | 57% | 1011.4 hPa | 0 mm | 2.24 m/s, 319° | 282 W/m² | - |
| 1778003402 | 12.22° C | 58% | 1011.1 hPa | 0 mm | 2.24 m/s, 299° | 237 W/m² | - |
| 1778003102 | 12.22° C | 58% | 1011.2 hPa | 0 mm | 2.24 m/s, 337° | 257 W/m² | - |
| 1778002802 | 12.22° C | 56% | 1011.1 hPa | 0 mm | 2.68 m/s, 261° | 283 W/m² | - |
| 1778002502 | 12.22° C | 58% | 1011 hPa | 0 mm | 0.89 m/s, 314° | 263 W/m² | - |
| 1778002202 | 12.22° C | 59% | 1010.8 hPa | 0 mm | 1.34 m/s, 262° | 291 W/m² | - |
| 1778001902 | 12.22° C | 61% | 1011.1 hPa | 0 mm | 0.89 m/s, 284° | 288 W/m² | - |
| 1778001602 | 12.22° C | 58% | 1011.1 hPa | 0 mm | 1.34 m/s, 305° | 251 W/m² | - |
| 1778001303 | 12.22° C | 57% | 1011 hPa | 0 mm | 1.34 m/s, 296° | 215 W/m² | - |
| 1778001003 | 12.78° C | 55% | 1010.9 hPa | 0 mm | 1.34 m/s, 295° | 282 W/m² | - |
| 1778000702 | 12.78° C | 58% | 1010.7 hPa | 0 mm | 0.89 m/s, 318° | 349 W/m² | - |
| 1778000402 | 12.78° C | 57% | 1010.9 hPa | 0 mm | 0.89 m/s, 288° | 401 W/m² | - |
| 1778000102 | 13.33° C | 54% | 1010.8 hPa | 0 mm | 1.34 m/s, 293° | 592 W/m² | - |
| 1777999801 | 12.78° C | 57% | 1010.6 hPa | 0 mm | 1.79 m/s, 315° | 605 W/m² | - |
| 1777999502 | 13.33° C | 54% | 1010.9 hPa | 0 mm | 1.79 m/s, 278° | 584 W/m² | - |
| 1777999202 | 13.89° C | 51% | 1010.7 hPa | 0 mm | 1.79 m/s, 289° | 582 W/m² | - |
| 1777998902 | 13.33° C | 53% | 1010.9 hPa | 0 mm | 1.79 m/s, 271° | 661 W/m² | - |
| 1777998602 | 13.33° C | 52% | 1010.8 hPa | 0 mm | 1.79 m/s, 225° | 576 W/m² | - |
| 1777998302 | 13.33° C | 53% | 1010.7 hPa | 0 mm | 1.34 m/s, 310° | 780 W/m² | - |
| 1777998002 | 13.33° C | 55% | 1010.4 hPa | 0 mm | 1.79 m/s, 312° | 737 W/m² | - |
| 1777997702 | 12.78° C | 58% | 1010.7 hPa | 0 mm | 0.45 m/s, 285° | 696 W/m² | - |
| 1777997402 | 12.78° C | 63% | 1010.5 hPa | 0 mm | 1.34 m/s, 305° | 423 W/m² | - |
* Rain latest hour (hover to see other rain measurements)
** Current wind speed in m/s (hover to see current wind gust speed)